N68RF PATK-PADQ
Flight info
| Callsign | N68RF |
|---|---|
| Flight time | N/A |
| Altitude | 26000 |
| Route | TAGER ENA V435 HOM V438 CINEK |
| Aircraft | B350/L-SBGRW/S |
Departure
| Time | 2026-04-20 21:37 |
|---|---|
| Airport | Talkeetna Airport (PATK) |
Arrival
| Time | N/A |
|---|---|
| Airport | Kodiak Airport (PADQ) |
| Time | Latitude | Longitude | Altitude | Speed | Heading |
|---|---|---|---|---|---|
| 2026-04-20 21:33 | 62.32034 | -150.09784 | 343 ft | 0 kts | 356° |
| 2026-04-20 21:35 | 62.32055 | -150.09758 | 344 ft | 7 kts | 64° |
| 2026-04-20 21:35 | 62.32071 | -150.09611 | 345 ft | 12 kts | 82° |
| 2026-04-20 21:36 | 62.32125 | -150.09445 | 345 ft | 17 kts | 28° |
| 2026-04-20 21:36 | 62.32250 | -150.09306 | 348 ft | 23 kts | 28° |
| 2026-04-20 21:36 | 62.32412 | -150.09126 | 348 ft | 25 kts | 27° |
| 2026-04-20 21:36 | 62.32563 | -150.08960 | 351 ft | 19 kts | 27° |
| 2026-04-20 21:37 | 62.32545 | -150.08823 | 351 ft | 12 kts | 201° |
| 2026-04-20 21:37 | 62.32198 | -150.09210 | 350 ft | 95 kts | 207° |
| 2026-04-20 21:37 | 62.31506 | -150.09946 | 701 ft | 122 kts | 203° |
| 2026-04-20 21:37 | 62.30735 | -150.10724 | 1402 ft | 126 kts | 202° |
| 2026-04-20 21:38 | 62.29951 | -150.11530 | 2147 ft | 127 kts | 203° |
| 2026-04-20 21:38 | 62.29138 | -150.12094 | 2835 ft | 128 kts | 193° |
| 2026-04-20 21:38 | 62.28290 | -150.12550 | 3519 ft | 129 kts | 192° |
| 2026-04-20 21:38 | 62.27421 | -150.13014 | 4189 ft | 130 kts | 192° |
| 2026-04-20 21:39 | 62.26557 | -150.13481 | 4837 ft | 134 kts | 193° |
| 2026-04-20 21:39 | 62.25651 | -150.13974 | 5533 ft | 137 kts | 193° |
| 2026-04-20 21:39 | 62.24745 | -150.14470 | 6225 ft | 140 kts | 194° |
| 2026-04-20 21:39 | 62.23812 | -150.14983 | 6969 ft | 141 kts | 194° |
| 2026-04-20 21:40 | 62.22873 | -150.15501 | 7684 ft | 142 kts | 194° |
| 2026-04-20 21:40 | 62.21927 | -150.16028 | 8384 ft | 144 kts | 195° |
| 2026-04-20 21:40 | 62.20972 | -150.16559 | 9059 ft | 146 kts | 195° |
| 2026-04-20 21:40 | 62.19995 | -150.17105 | 9744 ft | 149 kts | 195° |
| 2026-04-20 21:41 | 62.18990 | -150.17667 | 10467 ft | 151 kts | 195° |
| 2026-04-20 21:41 | 62.17986 | -150.18227 | 11151 ft | 153 kts | 195° |
| 2026-04-20 21:41 | 62.16976 | -150.18790 | 11812 ft | 155 kts | 196° |
| 2026-04-20 21:41 | 62.15922 | -150.19376 | 12465 ft | 160 kts | 197° |
| 2026-04-20 21:42 | 62.14850 | -150.19966 | 13184 ft | 163 kts | 198° |
| 2026-04-20 21:42 | 62.13761 | -150.20567 | 13903 ft | 165 kts | 199° |
| 2026-04-20 21:42 | 62.12665 | -150.21175 | 14590 ft | 167 kts | 199° |
| 2026-04-20 21:42 | 62.11552 | -150.21794 | 15246 ft | 169 kts | 199° |
| 2026-04-20 21:43 | 62.10421 | -150.22423 | 15924 ft | 171 kts | 199° |
| 2026-04-20 21:43 | 62.09261 | -150.23070 | 16623 ft | 174 kts | 199° |
| 2026-04-20 21:43 | 62.08107 | -150.23712 | 17324 ft | 174 kts | 199° |
| 2026-04-20 21:43 | 62.06964 | -150.24345 | 17995 ft | 174 kts | 199° |
| 2026-04-20 21:44 | 62.05797 | -150.24991 | 18666 ft | 174 kts | 200° |
| 2026-04-20 21:44 | 62.04622 | -150.25639 | 19316 ft | 177 kts | 199° |
| 2026-04-20 21:44 | 62.03442 | -150.26288 | 19978 ft | 179 kts | 200° |
| 2026-04-20 21:44 | 62.02248 | -150.26947 | 20625 ft | 180 kts | 200° |
| 2026-04-20 21:45 | 62.01041 | -150.27611 | 21236 ft | 182 kts | 200° |
| 2026-04-20 21:45 | 61.99822 | -150.28284 | 21832 ft | 184 kts | 200° |
| 2026-04-20 21:45 | 61.98580 | -150.28972 | 22421 ft | 185 kts | 200° |
| 2026-04-20 21:45 | 61.97344 | -150.29652 | 22924 ft | 185 kts | 200° |
| 2026-04-20 21:46 | 61.96102 | -150.30335 | 23345 ft | 188 kts | 201° |
| 2026-04-20 21:46 | 61.94825 | -150.31038 | 23736 ft | 191 kts | 201° |
| 2026-04-20 21:46 | 61.93524 | -150.31753 | 24120 ft | 194 kts | 200° |
| 2026-04-20 21:46 | 61.92203 | -150.32478 | 24507 ft | 197 kts | 201° |
| 2026-04-20 21:47 | 61.90846 | -150.33221 | 24897 ft | 198 kts | 201° |
| 2026-04-20 21:47 | 61.89500 | -150.33957 | 25257 ft | 200 kts | 201° |
| 2026-04-20 21:47 | 61.88154 | -150.34692 | 25605 ft | 201 kts | 201° |
| 2026-04-20 21:47 | 61.86752 | -150.35461 | 25823 ft | 211 kts | 201° |
| 2026-04-20 21:48 | 61.85276 | -150.36279 | 25855 ft | 227 kts | 200° |
| 2026-04-20 21:48 | 61.83683 | -150.37157 | 25861 ft | 243 kts | 200° |
| 2026-04-20 21:48 | 61.81995 | -150.38078 | 25858 ft | 258 kts | 199° |
| 2026-04-20 21:48 | 61.80177 | -150.39062 | 25854 ft | 272 kts | 199° |
| 2026-04-20 21:49 | 61.78305 | -150.40073 | 25852 ft | 284 kts | 199° |
| 2026-04-20 21:49 | 61.76351 | -150.41126 | 25853 ft | 295 kts | 199° |
| 2026-04-20 21:49 | 61.74339 | -150.42210 | 25852 ft | 305 kts | 199° |
| 2026-04-20 21:49 | 61.72243 | -150.43335 | 25851 ft | 313 kts | 199° |
| 2026-04-20 21:50 | 61.70116 | -150.44476 | 25851 ft | 320 kts | 199° |